sensor_id;sensor_type;location;lat;lon;timestamp;P1;durP1;ratioP1;P2;durP2;ratioP2
73454;SDS011;61690;51.824;6.306;2023-05-07T00:01:19;5.15;;;2.33;;
73454;SDS011;61690;51.824;6.306;2023-05-07T00:03:45;5.30;;;2.20;;
73454;SDS011;61690;51.824;6.306;2023-05-07T00:06:11;6.13;;;2.23;;
73454;SDS011;61690;51.824;6.306;2023-05-07T00:08:38;6.97;;;2.50;;
73454;SDS011;61690;51.824;6.306;2023-05-07T00:11:03;5.83;;;2.37;;
73454;SDS011;61690;51.824;6.306;2023-05-07T00:13:30;5.63;;;2.38;;
73454;SDS011;61690;51.824;6.306;2023-05-07T00:16:00;6.32;;;2.30;;
73454;SDS011;61690;51.824;6.306;2023-05-07T00:18:27;6.00;;;2.15;;
73454;SDS011;61690;51.824;6.306;2023-05-07T00:20:52;6.97;;;2.50;;
73454;SDS011;61690;51.824;6.306;2023-05-07T00:23:18;5.27;;;2.20;;
73454;SDS011;61690;51.824;6.306;2023-05-07T00:25:43;5.13;;;2.10;;
73454;SDS011;61690;51.824;6.306;2023-05-07T00:28:08;6.17;;;2.40;;
73454;SDS011;61690;51.824;6.306;2023-05-07T00:30:34;5.28;;;2.00;;
73454;SDS011;61690;51.824;6.306;2023-05-07T00:32:59;6.50;;;2.00;;
73454;SDS011;61690;51.824;6.306;2023-05-07T00:35:24;5.67;;;2.33;;
73454;SDS011;61690;51.824;6.306;2023-05-07T00:37:50;5.60;;;2.40;;
73454;SDS011;61690;51.824;6.306;2023-05-07T00:40:15;5.10;;;2.23;;
73454;SDS011;61690;51.824;6.306;2023-05-07T00:42:40;6.40;;;2.20;;
73454;SDS011;61690;51.824;6.306;2023-05-07T00:45:06;5.60;;;2.20;;
73454;SDS011;61690;51.824;6.306;2023-05-07T00:47:32;5.60;;;2.20;;
73454;SDS011;61690;51.824;6.306;2023-05-07T00:49:58;6.13;;;2.40;;
73454;SDS011;61690;51.824;6.306;2023-05-07T00:52:23;6.13;;;2.10;;
73454;SDS011;61690;51.824;6.306;2023-05-07T00:54:50;5.45;;;1.98;;
73454;SDS011;61690;51.824;6.306;2023-05-07T00:57:16;4.75;;;1.90;;
73454;SDS011;61690;51.824;6.306;2023-05-07T00:59:42;5.30;;;2.17;;
73454;SDS011;61690;51.824;6.306;2023-05-07T01:02:08;5.93;;;2.20;;
73454;SDS011;61690;51.824;6.306;2023-05-07T01:04:34;5.00;;;2.03;;
73454;SDS011;61690;51.824;6.306;2023-05-07T01:07:00;5.40;;;2.03;;
73454;SDS011;61690;51.824;6.306;2023-05-07T01:09:26;5.30;;;1.98;;
73454;SDS011;61690;51.824;6.306;2023-05-07T01:11:53;5.77;;;2.20;;
73454;SDS011;61690;51.824;6.306;2023-05-07T01:14:20;5.82;;;2.00;;
73454;SDS011;61690;51.824;6.306;2023-05-07T01:16:47;5.93;;;2.23;;
73454;SDS011;61690;51.824;6.306;2023-05-07T01:19:13;5.13;;;1.90;;
73454;SDS011;61690;51.824;6.306;2023-05-07T01:21:43;5.13;;;2.05;;
73454;SDS011;61690;51.824;6.306;2023-05-07T01:24:12;5.60;;;2.30;;
73454;SDS011;61690;51.824;6.306;2023-05-07T01:26:38;5.67;;;2.10;;
73454;SDS011;61690;51.824;6.306;2023-05-07T01:29:04;5.90;;;2.03;;
73454;SDS011;61690;51.824;6.306;2023-05-07T01:31:29;5.67;;;2.20;;
73454;SDS011;61690;51.824;6.306;2023-05-07T01:33:55;5.57;;;2.25;;
73454;SDS011;61690;51.824;6.306;2023-05-07T01:36:23;6.00;;;2.20;;
73454;SDS011;61690;51.824;6.306;2023-05-07T01:38:52;5.82;;;2.30;;
73454;SDS011;61690;51.824;6.306;2023-05-07T01:41:18;6.32;;;2.20;;
73454;SDS011;61690;51.824;6.306;2023-05-07T01:43:44;5.70;;;2.13;;
73454;SDS011;61690;51.824;6.306;2023-05-07T01:46:12;5.90;;;2.43;;
73454;SDS011;61690;51.824;6.306;2023-05-07T01:48:38;5.13;;;1.90;;
73454;SDS011;61690;51.824;6.306;2023-05-07T01:51:04;5.35;;;2.17;;
73454;SDS011;61690;51.824;6.306;2023-05-07T01:53:35;5.85;;;2.40;;
73454;SDS011;61690;51.824;6.306;2023-05-07T01:56:01;6.00;;;2.27;;
73454;SDS011;61690;51.824;6.306;2023-05-07T01:58:26;6.40;;;2.37;;
73454;SDS011;61690;51.824;6.306;2023-05-07T02:00:51;6.57;;;2.27;;
73454;SDS011;61690;51.824;6.306;2023-05-07T02:03:16;4.90;;;1.87;;
73454;SDS011;61690;51.824;6.306;2023-05-07T02:05:42;5.93;;;2.40;;
73454;SDS011;61690;51.824;6.306;2023-05-07T02:08:08;5.47;;;2.00;;
73454;SDS011;61690;51.824;6.306;2023-05-07T02:10:35;7.53;;;2.50;;
73454;SDS011;61690;51.824;6.306;2023-05-07T02:13:01;4.65;;;1.98;;
73454;SDS011;61690;51.824;6.306;2023-05-07T02:15:27;5.00;;;2.20;;
73454;SDS011;61690;51.824;6.306;2023-05-07T02:20:29;5.57;;;2.10;;
73454;SDS011;61690;51.824;6.306;2023-05-07T02:22:54;5.28;;;1.85;;
73454;SDS011;61690;51.824;6.306;2023-05-07T02:25:20;4.90;;;2.00;;
73454;SDS011;61690;51.824;6.306;2023-05-07T02:27:45;5.90;;;2.50;;
73454;SDS011;61690;51.824;6.306;2023-05-07T02:30:10;5.73;;;2.20;;
73454;SDS011;61690;51.824;6.306;2023-05-07T02:32:36;6.90;;;2.00;;
73454;SDS011;61690;51.824;6.306;2023-05-07T02:35:01;6.70;;;2.40;;
73454;SDS011;61690;51.824;6.306;2023-05-07T02:37:26;4.60;;;1.70;;
73454;SDS011;61690;51.824;6.306;2023-05-07T02:39:51;6.23;;;2.23;;
73454;SDS011;61690;51.824;6.306;2023-05-07T02:42:17;6.70;;;2.30;;
73454;SDS011;61690;51.824;6.306;2023-05-07T02:44:42;5.20;;;2.20;;
73454;SDS011;61690;51.824;6.306;2023-05-07T02:47:08;5.40;;;2.13;;
73454;SDS011;61690;51.824;6.306;2023-05-07T02:49:34;5.60;;;2.20;;
73454;SDS011;61690;51.824;6.306;2023-05-07T02:51:59;5.77;;;2.40;;
73454;SDS011;61690;51.824;6.306;2023-05-07T02:54:25;6.37;;;2.27;;
73454;SDS011;61690;51.824;6.306;2023-05-07T02:56:50;6.80;;;2.30;;
73454;SDS011;61690;51.824;6.306;2023-05-07T02:59:15;5.33;;;2.20;;
73454;SDS011;61690;51.824;6.306;2023-05-07T03:01:41;6.20;;;2.10;;
73454;SDS011;61690;51.824;6.306;2023-05-07T03:04:08;5.93;;;2.15;;
73454;SDS011;61690;51.824;6.306;2023-05-07T03:06:34;6.30;;;2.20;;
73454;SDS011;61690;51.824;6.306;2023-05-07T03:09:00;6.05;;;1.98;;
73454;SDS011;61690;51.824;6.306;2023-05-07T03:11:25;5.03;;;2.10;;
73454;SDS011;61690;51.824;6.306;2023-05-07T03:13:50;4.57;;;1.90;;
73454;SDS011;61690;51.824;6.306;2023-05-07T03:16:15;6.13;;;2.30;;
73454;SDS011;61690;51.824;6.306;2023-05-07T03:18:41;5.33;;;2.17;;
73454;SDS011;61690;51.824;6.306;2023-05-07T03:21:07;6.40;;;2.15;;
73454;SDS011;61690;51.824;6.306;2023-05-07T03:23:32;5.63;;;2.10;;
73454;SDS011;61690;51.824;6.306;2023-05-07T03:25:57;5.53;;;2.00;;
73454;SDS011;61690;51.824;6.306;2023-05-07T03:28:22;6.33;;;2.20;;
73454;SDS011;61690;51.824;6.306;2023-05-07T03:30:48;5.93;;;2.10;;
73454;SDS011;61690;51.824;6.306;2023-05-07T03:33:14;5.70;;;2.20;;
73454;SDS011;61690;51.824;6.306;2023-05-07T03:35:40;6.30;;;2.40;;
73454;SDS011;61690;51.824;6.306;2023-05-07T03:38:05;5.40;;;2.10;;
73454;SDS011;61690;51.824;6.306;2023-05-07T03:40:30;4.97;;;2.20;;
73454;SDS011;61690;51.824;6.306;2023-05-07T03:42:56;5.60;;;2.37;;
73454;SDS011;61690;51.824;6.306;2023-05-07T03:45:21;5.33;;;2.03;;
73454;SDS011;61690;51.824;6.306;2023-05-07T03:47:46;5.43;;;2.15;;
73454;SDS011;61690;51.824;6.306;2023-05-07T03:50:12;7.13;;;2.50;;
73454;SDS011;61690;51.824;6.306;2023-05-07T03:52:37;6.03;;;2.30;;
73454;SDS011;61690;51.824;6.306;2023-05-07T03:55:02;5.60;;;2.00;;
73454;SDS011;61690;51.824;6.306;2023-05-07T03:57:28;4.67;;;1.77;;
73454;SDS011;61690;51.824;6.306;2023-05-07T03:59:53;5.93;;;2.07;;
73454;SDS011;61690;51.824;6.306;2023-05-07T04:02:20;5.38;;;2.08;;
73454;SDS011;61690;51.824;6.306;2023-05-07T04:04:45;5.10;;;2.20;;
73454;SDS011;61690;51.824;6.306;2023-05-07T04:07:10;5.70;;;2.00;;
73454;SDS011;61690;51.824;6.306;2023-05-07T04:09:36;5.30;;;2.03;;
73454;SDS011;61690;51.824;6.306;2023-05-07T04:12:01;5.47;;;2.10;;
73454;SDS011;61690;51.824;6.306;2023-05-07T04:14:26;6.33;;;2.10;;
73454;SDS011;61690;51.824;6.306;2023-05-07T04:16:51;6.33;;;2.10;;
73454;SDS011;61690;51.824;6.306;2023-05-07T04:19:17;4.67;;;1.97;;
73454;SDS011;61690;51.824;6.306;2023-05-07T04:21:42;5.40;;;2.03;;
73454;SDS011;61690;51.824;6.306;2023-05-07T04:24:08;5.65;;;2.08;;
73454;SDS011;61690;51.824;6.306;2023-05-07T04:26:33;4.87;;;2.10;;
73454;SDS011;61690;51.824;6.306;2023-05-07T04:28:59;5.60;;;1.97;;
73454;SDS011;61690;51.824;6.306;2023-05-07T04:31:24;5.35;;;2.00;;
73454;SDS011;61690;51.824;6.306;2023-05-07T04:33:52;5.35;;;2.05;;
73454;SDS011;61690;51.824;6.306;2023-05-07T04:36:17;5.03;;;1.90;;
73454;SDS011;61690;51.824;6.306;2023-05-07T04:38:43;6.33;;;2.33;;
73454;SDS011;61690;51.824;6.306;2023-05-07T04:41:08;4.47;;;1.77;;
73454;SDS011;61690;51.824;6.306;2023-05-07T04:43:34;5.15;;;2.13;;
73454;SDS011;61690;51.824;6.306;2023-05-07T04:46:01;5.70;;;1.90;;
73454;SDS011;61690;51.824;6.306;2023-05-07T04:48:26;5.90;;;2.00;;
73454;SDS011;61690;51.824;6.306;2023-05-07T04:50:53;4.90;;;2.00;;
73454;SDS011;61690;51.824;6.306;2023-05-07T04:53:18;5.00;;;2.20;;
73454;SDS011;61690;51.824;6.306;2023-05-07T04:55:44;5.47;;;2.03;;
73454;SDS011;61690;51.824;6.306;2023-05-07T04:58:11;5.40;;;2.05;;
73454;SDS011;61690;51.824;6.306;2023-05-07T05:00:37;5.25;;;2.10;;
73454;SDS011;61690;51.824;6.306;2023-05-07T05:03:03;5.17;;;1.80;;
73454;SDS011;61690;51.824;6.306;2023-05-07T05:05:29;5.27;;;2.20;;
73454;SDS011;61690;51.824;6.306;2023-05-07T05:07:54;4.83;;;1.90;;
73454;SDS011;61690;51.824;6.306;2023-05-07T05:10:19;4.57;;;1.97;;
73454;SDS011;61690;51.824;6.306;2023-05-07T05:12:45;5.97;;;1.57;;
73454;SDS011;61690;51.824;6.306;2023-05-07T05:15:13;6.50;;;2.00;;
73454;SDS011;61690;51.824;6.306;2023-05-07T05:17:39;6.20;;;1.90;;
73454;SDS011;61690;51.824;6.306;2023-05-07T05:20:06;4.68;;;1.83;;
73454;SDS011;61690;51.824;6.306;2023-05-07T05:22:34;6.18;;;1.83;;
73454;SDS011;61690;51.824;6.306;2023-05-07T05:24:59;4.70;;;1.90;;
73454;SDS011;61690;51.824;6.306;2023-05-07T05:27:26;5.72;;;1.90;;
73454;SDS011;61690;51.824;6.306;2023-05-07T05:29:52;4.73;;;2.00;;
73454;SDS011;61690;51.824;6.306;2023-05-07T05:32:17;6.03;;;1.90;;
73454;SDS011;61690;51.824;6.306;2023-05-07T05:34:43;5.73;;;1.93;;
73454;SDS011;61690;51.824;6.306;2023-05-07T05:37:09;7.38;;;1.70;;
73454;SDS011;61690;51.824;6.306;2023-05-07T05:39:35;5.93;;;1.90;;
73454;SDS011;61690;51.824;6.306;2023-05-07T05:42:01;4.95;;;1.58;;
73454;SDS011;61690;51.824;6.306;2023-05-07T05:44:27;5.72;;;1.98;;
73454;SDS011;61690;51.824;6.306;2023-05-07T05:46:53;5.67;;;2.10;;
73454;SDS011;61690;51.824;6.306;2023-05-07T05:49:20;6.30;;;1.80;;
73454;SDS011;61690;51.824;6.306;2023-05-07T05:51:46;7.85;;;1.73;;
73454;SDS011;61690;51.824;6.306;2023-05-07T05:54:14;8.90;;;1.97;;
73454;SDS011;61690;51.824;6.306;2023-05-07T05:56:41;6.10;;;2.15;;
73454;SDS011;61690;51.824;6.306;2023-05-07T05:59:07;6.72;;;1.70;;
73454;SDS011;61690;51.824;6.306;2023-05-07T06:01:32;6.97;;;1.83;;
73454;SDS011;61690;51.824;6.306;2023-05-07T06:03:58;4.67;;;1.60;;
73454;SDS011;61690;51.824;6.306;2023-05-07T06:06:23;6.57;;;1.93;;
73454;SDS011;61690;51.824;6.306;2023-05-07T06:08:48;6.70;;;1.80;;
73454;SDS011;61690;51.824;6.306;2023-05-07T06:11:13;5.17;;;1.80;;
73454;SDS011;61690;51.824;6.306;2023-05-07T06:13:39;5.00;;;2.07;;
73454;SDS011;61690;51.824;6.306;2023-05-07T06:16:04;5.47;;;1.90;;
73454;SDS011;61690;51.824;6.306;2023-05-07T06:18:31;5.73;;;1.90;;
73454;SDS011;61690;51.824;6.306;2023-05-07T06:20:56;7.50;;;1.98;;
73454;SDS011;61690;51.824;6.306;2023-05-07T06:23:22;5.90;;;2.00;;
73454;SDS011;61690;51.824;6.306;2023-05-07T06:25:50;7.53;;;2.00;;
73454;SDS011;61690;51.824;6.306;2023-05-07T06:28:16;5.17;;;1.77;;
73454;SDS011;61690;51.824;6.306;2023-05-07T06:30:41;6.15;;;1.70;;
73454;SDS011;61690;51.824;6.306;2023-05-07T06:33:07;9.57;;;1.80;;
73454;SDS011;61690;51.824;6.306;2023-05-07T06:35:35;4.67;;;1.57;;
73454;SDS011;61690;51.824;6.306;2023-05-07T06:38:00;9.85;;;2.00;;
73454;SDS011;61690;51.824;6.306;2023-05-07T06:40:26;5.03;;;1.70;;
73454;SDS011;61690;51.824;6.306;2023-05-07T06:42:51;4.87;;;1.90;;
73454;SDS011;61690;51.824;6.306;2023-05-07T06:45:17;8.40;;;1.90;;
73454;SDS011;61690;51.824;6.306;2023-05-07T06:47:42;7.83;;;1.83;;
73454;SDS011;61690;51.824;6.306;2023-05-07T06:50:07;9.77;;;1.83;;
73454;SDS011;61690;51.824;6.306;2023-05-07T06:52:34;8.98;;;1.70;;
73454;SDS011;61690;51.824;6.306;2023-05-07T06:55:00;6.40;;;1.80;;
73454;SDS011;61690;51.824;6.306;2023-05-07T06:57:26;6.60;;;2.10;;
73454;SDS011;61690;51.824;6.306;2023-05-07T06:59:52;7.32;;;2.30;;
73454;SDS011;61690;51.824;6.306;2023-05-07T07:02:17;6.80;;;2.00;;
73454;SDS011;61690;51.824;6.306;2023-05-07T07:04:46;9.53;;;1.93;;
73454;SDS011;61690;51.824;6.306;2023-05-07T07:07:11;6.00;;;1.90;;
73454;SDS011;61690;51.824;6.306;2023-05-07T07:09:37;8.03;;;2.17;;
73454;SDS011;61690;51.824;6.306;2023-05-07T07:12:02;5.97;;;2.13;;
73454;SDS011;61690;51.824;6.306;2023-05-07T07:14:27;6.07;;;2.10;;
73454;SDS011;61690;51.824;6.306;2023-05-07T07:16:53;8.07;;;2.30;;
73454;SDS011;61690;51.824;6.306;2023-05-07T07:19:18;7.70;;;2.10;;
73454;SDS011;61690;51.824;6.306;2023-05-07T07:21:48;6.05;;;2.10;;
73454;SDS011;61690;51.824;6.306;2023-05-07T07:24:14;7.40;;;2.40;;
73454;SDS011;61690;51.824;6.306;2023-05-07T07:26:44;4.97;;;2.30;;
73454;SDS011;61690;51.824;6.306;2023-05-07T07:29:13;7.05;;;2.33;;
73454;SDS011;61690;51.824;6.306;2023-05-07T07:31:38;6.00;;;2.40;;
73454;SDS011;61690;51.824;6.306;2023-05-07T07:34:04;6.13;;;2.40;;
73454;SDS011;61690;51.824;6.306;2023-05-07T07:36:29;6.73;;;2.10;;
73454;SDS011;61690;51.824;6.306;2023-05-07T07:38:55;5.15;;;2.00;;
73454;SDS011;61690;51.824;6.306;2023-05-07T07:41:20;6.70;;;2.20;;
73454;SDS011;61690;51.824;6.306;2023-05-07T07:43:46;5.90;;;1.90;;
73454;SDS011;61690;51.824;6.306;2023-05-07T07:46:11;6.03;;;2.40;;
73454;SDS011;61690;51.824;6.306;2023-05-07T07:48:38;5.67;;;2.00;;
73454;SDS011;61690;51.824;6.306;2023-05-07T07:51:04;7.53;;;2.47;;
73454;SDS011;61690;51.824;6.306;2023-05-07T07:53:29;5.87;;;2.37;;
73454;SDS011;61690;51.824;6.306;2023-05-07T07:55:55;7.13;;;2.65;;
73454;SDS011;61690;51.824;6.306;2023-05-07T07:58:20;7.27;;;2.60;;
73454;SDS011;61690;51.824;6.306;2023-05-07T08:00:47;7.03;;;2.80;;
73454;SDS011;61690;51.824;6.306;2023-05-07T08:03:12;5.97;;;2.25;;
73454;SDS011;61690;51.824;6.306;2023-05-07T08:05:40;8.50;;;2.40;;
73454;SDS011;61690;51.824;6.306;2023-05-07T08:08:06;8.05;;;2.75;;
73454;SDS011;61690;51.824;6.306;2023-05-07T08:10:31;5.80;;;2.47;;
73454;SDS011;61690;51.824;6.306;2023-05-07T08:12:59;5.75;;;2.42;;
73454;SDS011;61690;51.824;6.306;2023-05-07T08:15:25;7.60;;;2.40;;
73454;SDS011;61690;51.824;6.306;2023-05-07T08:17:50;5.43;;;2.53;;
73454;SDS011;61690;51.824;6.306;2023-05-07T08:20:16;5.70;;;2.40;;
73454;SDS011;61690;51.824;6.306;2023-05-07T08:22:41;6.40;;;2.70;;
73454;SDS011;61690;51.824;6.306;2023-05-07T08:25:06;5.07;;;2.53;;
73454;SDS011;61690;51.824;6.306;2023-05-07T08:27:32;5.83;;;2.30;;
73454;SDS011;61690;51.824;6.306;2023-05-07T08:29:57;5.97;;;2.50;;
73454;SDS011;61690;51.824;6.306;2023-05-07T08:32:26;6.70;;;2.50;;
73454;SDS011;61690;51.824;6.306;2023-05-07T08:34:52;6.30;;;2.77;;
73454;SDS011;61690;51.824;6.306;2023-05-07T08:37:17;5.63;;;2.57;;
73454;SDS011;61690;51.824;6.306;2023-05-07T08:39:42;6.73;;;3.03;;
73454;SDS011;61690;51.824;6.306;2023-05-07T08:42:07;7.43;;;2.83;;
73454;SDS011;61690;51.824;6.306;2023-05-07T08:44:35;9.32;;;3.55;;
73454;SDS011;61690;51.824;6.306;2023-05-07T08:47:06;7.17;;;3.27;;
73454;SDS011;61690;51.824;6.306;2023-05-07T08:49:33;7.35;;;3.10;;
73454;SDS011;61690;51.824;6.306;2023-05-07T08:51:59;6.82;;;3.05;;
73454;SDS011;61690;51.824;6.306;2023-05-07T08:54:24;7.18;;;2.92;;
73454;SDS011;61690;51.824;6.306;2023-05-07T08:56:51;7.57;;;3.27;;
73454;SDS011;61690;51.824;6.306;2023-05-07T08:59:16;7.13;;;3.00;;
73454;SDS011;61690;51.824;6.306;2023-05-07T09:01:41;6.43;;;3.10;;
73454;SDS011;61690;51.824;6.306;2023-05-07T09:04:07;6.90;;;3.10;;
73454;SDS011;61690;51.824;6.306;2023-05-07T09:06:34;6.32;;;2.88;;
73454;SDS011;61690;51.824;6.306;2023-05-07T09:09:00;6.85;;;3.20;;
73454;SDS011;61690;51.824;6.306;2023-05-07T09:11:26;6.53;;;2.80;;
73454;SDS011;61690;51.824;6.306;2023-05-07T09:13:58;6.53;;;3.00;;
73454;SDS011;61690;51.824;6.306;2023-05-07T09:16:26;7.25;;;3.10;;
73454;SDS011;61690;51.824;6.306;2023-05-07T09:18:54;7.68;;;2.75;;
73454;SDS011;61690;51.824;6.306;2023-05-07T09:21:22;6.07;;;2.58;;
73454;SDS011;61690;51.824;6.306;2023-05-07T09:23:50;6.90;;;2.53;;
73454;SDS011;61690;51.824;6.306;2023-05-07T09:26:17;7.03;;;2.95;;
73454;SDS011;61690;51.824;6.306;2023-05-07T09:28:43;5.93;;;2.72;;
73454;SDS011;61690;51.824;6.306;2023-05-07T09:31:10;5.40;;;2.63;;
73454;SDS011;61690;51.824;6.306;2023-05-07T09:33:36;5.75;;;2.55;;
73454;SDS011;61690;51.824;6.306;2023-05-07T09:36:03;7.10;;;2.70;;
73454;SDS011;61690;51.824;6.306;2023-05-07T09:38:30;6.05;;;2.60;;
73454;SDS011;61690;51.824;6.306;2023-05-07T09:41:10;5.32;;;2.63;;
73454;SDS011;61690;51.824;6.306;2023-05-07T09:43:38;8.25;;;3.00;;
73454;SDS011;61690;51.824;6.306;2023-05-07T09:46:11;5.57;;;2.80;;
73454;SDS011;61690;51.824;6.306;2023-05-07T09:48:38;5.60;;;2.60;;
73454;SDS011;61690;51.824;6.306;2023-05-07T09:51:08;7.80;;;2.55;;
73454;SDS011;61690;51.824;6.306;2023-05-07T09:53:41;6.28;;;3.00;;
73454;SDS011;61690;51.824;6.306;2023-05-07T09:56:08;7.82;;;2.60;;
73454;SDS011;61690;51.824;6.306;2023-05-07T09:58:36;6.40;;;2.80;;
73454;SDS011;61690;51.824;6.306;2023-05-07T10:01:02;9.70;;;3.10;;
73454;SDS011;61690;51.824;6.306;2023-05-07T10:03:29;7.13;;;3.10;;
73454;SDS011;61690;51.824;6.306;2023-05-07T10:05:57;7.25;;;3.80;;
73454;SDS011;61690;51.824;6.306;2023-05-07T10:08:23;6.13;;;3.22;;
73454;SDS011;61690;51.824;6.306;2023-05-07T10:10:49;5.37;;;3.40;;
73454;SDS011;61690;51.824;6.306;2023-05-07T10:13:14;8.70;;;3.63;;
73454;SDS011;61690;51.824;6.306;2023-05-07T10:15:41;5.93;;;2.97;;
73454;SDS011;61690;51.824;6.306;2023-05-07T10:18:07;6.05;;;3.20;;
73454;SDS011;61690;51.824;6.306;2023-05-07T10:20:33;6.65;;;3.00;;
73454;SDS011;61690;51.824;6.306;2023-05-07T10:23:01;5.78;;;3.30;;
73454;SDS011;61690;51.824;6.306;2023-05-07T10:25:31;5.87;;;3.13;;
73454;SDS011;61690;51.824;6.306;2023-05-07T10:28:06;6.70;;;3.47;;
73454;SDS011;61690;51.824;6.306;2023-05-07T10:33:38;5.60;;;3.10;;
73454;SDS011;61690;51.824;6.306;2023-05-07T10:36:04;6.65;;;3.20;;
73454;SDS011;61690;51.824;6.306;2023-05-07T10:38:30;6.93;;;3.10;;
73454;SDS011;61690;51.824;6.306;2023-05-07T10:40:56;6.65;;;3.40;;
73454;SDS011;61690;51.824;6.306;2023-05-07T10:43:23;7.00;;;3.20;;
73454;SDS011;61690;51.824;6.306;2023-05-07T10:46:08;6.10;;;3.10;;
73454;SDS011;61690;51.824;6.306;2023-05-07T10:51:34;8.02;;;3.50;;
73454;SDS011;61690;51.824;6.306;2023-05-07T10:54:18;6.25;;;3.00;;
73454;SDS011;61690;51.824;6.306;2023-05-07T10:56:46;5.85;;;3.20;;
73454;SDS011;61690;51.824;6.306;2023-05-07T11:04:23;5.88;;;3.15;;
73454;SDS011;61690;51.824;6.306;2023-05-07T11:07:24;6.70;;;3.20;;
73454;SDS011;61690;51.824;6.306;2023-05-07T11:12:17;7.10;;;3.80;;
73454;SDS011;61690;51.824;6.306;2023-05-07T11:15:11;6.33;;;3.40;;
73454;SDS011;61690;51.824;6.306;2023-05-07T11:17:55;6.15;;;3.50;;
73454;SDS011;61690;51.824;6.306;2023-05-07T11:26:07;6.70;;;3.60;;
73454;SDS011;61690;51.824;6.306;2023-05-07T11:28:38;8.20;;;4.13;;
73454;SDS011;61690;51.824;6.306;2023-05-07T11:31:07;6.60;;;3.50;;
73454;SDS011;61690;51.824;6.306;2023-05-07T11:33:33;6.88;;;3.70;;
73454;SDS011;61690;51.824;6.306;2023-05-07T11:36:00;7.35;;;3.90;;
73454;SDS011;61690;51.824;6.306;2023-05-07T11:38:29;7.82;;;3.95;;
73454;SDS011;61690;51.824;6.306;2023-05-07T11:40:56;6.63;;;3.60;;
73454;SDS011;61690;51.824;6.306;2023-05-07T11:43:26;6.30;;;3.95;;
73454;SDS011;61690;51.824;6.306;2023-05-07T11:45:52;6.53;;;3.85;;
73454;SDS011;61690;51.824;6.306;2023-05-07T11:48:18;6.88;;;3.53;;
73454;SDS011;61690;51.824;6.306;2023-05-07T11:53:26;6.22;;;3.55;;
73454;SDS011;61690;51.824;6.306;2023-05-07T11:55:53;6.65;;;3.78;;
73454;SDS011;61690;51.824;6.306;2023-05-07T11:58:20;6.60;;;3.67;;
73454;SDS011;61690;51.824;6.306;2023-05-07T12:00:50;6.85;;;4.07;;
73454;SDS011;61690;51.824;6.306;2023-05-07T12:03:16;6.53;;;3.43;;
73454;SDS011;61690;51.824;6.306;2023-05-07T12:05:44;6.30;;;3.90;;
73454;SDS011;61690;51.824;6.306;2023-05-07T12:08:14;6.78;;;3.67;;
73454;SDS011;61690;51.824;6.306;2023-05-07T12:10:41;6.32;;;3.42;;
73454;SDS011;61690;51.824;6.306;2023-05-07T12:13:25;5.95;;;3.60;;
73454;SDS011;61690;51.824;6.306;2023-05-07T12:15:52;6.30;;;3.60;;
73454;SDS011;61690;51.824;6.306;2023-05-07T12:18:18;6.40;;;3.55;;
73454;SDS011;61690;51.824;6.306;2023-05-07T12:20:44;5.88;;;3.50;;
73454;SDS011;61690;51.824;6.306;2023-05-07T12:23:10;7.05;;;3.40;;
73454;SDS011;61690;51.824;6.306;2023-05-07T12:25:37;6.28;;;3.53;;
73454;SDS011;61690;51.824;6.306;2023-05-07T12:28:03;6.03;;;3.40;;
73454;SDS011;61690;51.824;6.306;2023-05-07T12:30:37;7.70;;;3.50;;
73454;SDS011;61690;51.824;6.306;2023-05-07T12:33:03;6.50;;;3.80;;
73454;SDS011;61690;51.824;6.306;2023-05-07T12:35:29;6.57;;;4.20;;
73454;SDS011;61690;51.824;6.306;2023-05-07T12:37:55;8.32;;;4.05;;
73454;SDS011;61690;51.824;6.306;2023-05-07T12:40:46;7.43;;;3.88;;
73454;SDS011;61690;51.824;6.306;2023-05-07T12:43:15;8.50;;;4.15;;
73454;SDS011;61690;51.824;6.306;2023-05-07T12:45:51;6.00;;;3.90;;
73454;SDS011;61690;51.824;6.306;2023-05-07T12:48:19;7.20;;;4.18;;
73454;SDS011;61690;51.824;6.306;2023-05-07T12:50:48;10.68;;;4.10;;
73454;SDS011;61690;51.824;6.306;2023-05-07T12:53:14;8.93;;;3.92;;
73454;SDS011;61690;51.824;6.306;2023-05-07T12:55:44;8.60;;;4.40;;
73454;SDS011;61690;51.824;6.306;2023-05-07T12:58:14;7.30;;;3.42;;
73454;SDS011;61690;51.824;6.306;2023-05-07T13:00:42;7.47;;;3.75;;
73454;SDS011;61690;51.824;6.306;2023-05-07T13:03:08;7.63;;;4.00;;
73454;SDS011;61690;51.824;6.306;2023-05-07T13:05:34;6.47;;;4.00;;
73454;SDS011;61690;51.824;6.306;2023-05-07T13:08:00;6.75;;;3.90;;
73454;SDS011;61690;51.824;6.306;2023-05-07T13:10:27;7.90;;;4.30;;
73454;SDS011;61690;51.824;6.306;2023-05-07T13:12:54;7.63;;;4.55;;
73454;SDS011;61690;51.824;6.306;2023-05-07T13:15:20;7.03;;;4.10;;
73454;SDS011;61690;51.824;6.306;2023-05-07T13:17:46;8.40;;;4.10;;
73454;SDS011;61690;51.824;6.306;2023-05-07T13:20:13;7.97;;;4.20;;
73454;SDS011;61690;51.824;6.306;2023-05-07T13:22:39;8.37;;;3.93;;
73454;SDS011;61690;51.824;6.306;2023-05-07T13:25:05;6.07;;;3.40;;
73454;SDS011;61690;51.824;6.306;2023-05-07T13:27:30;8.00;;;3.78;;
73454;SDS011;61690;51.824;6.306;2023-05-07T13:29:57;7.60;;;3.80;;
73454;SDS011;61690;51.824;6.306;2023-05-07T13:32:23;8.98;;;4.28;;
73454;SDS011;61690;51.824;6.306;2023-05-07T13:34:50;6.97;;;3.73;;
73454;SDS011;61690;51.824;6.306;2023-05-07T13:37:15;6.10;;;3.60;;
73454;SDS011;61690;51.824;6.306;2023-05-07T13:39:41;7.67;;;3.77;;
73454;SDS011;61690;51.824;6.306;2023-05-07T13:42:06;6.00;;;3.40;;
73454;SDS011;61690;51.824;6.306;2023-05-07T13:44:31;7.43;;;3.60;;
73454;SDS011;61690;51.824;6.306;2023-05-07T13:46:58;6.60;;;3.60;;
73454;SDS011;61690;51.824;6.306;2023-05-07T13:49:24;7.95;;;4.10;;
73454;SDS011;61690;51.824;6.306;2023-05-07T13:51:49;8.23;;;4.23;;
73454;SDS011;61690;51.824;6.306;2023-05-07T13:54:14;7.07;;;4.10;;
73454;SDS011;61690;51.824;6.306;2023-05-07T13:56:40;7.22;;;4.05;;
73454;SDS011;61690;51.824;6.306;2023-05-07T13:59:06;6.73;;;4.10;;
73454;SDS011;61690;51.824;6.306;2023-05-07T14:01:31;6.90;;;3.83;;
73454;SDS011;61690;51.824;6.306;2023-05-07T14:03:58;7.53;;;4.10;;
73454;SDS011;61690;51.824;6.306;2023-05-07T14:06:24;7.82;;;4.05;;
73454;SDS011;61690;51.824;6.306;2023-05-07T14:08:50;7.80;;;4.13;;
73454;SDS011;61690;51.824;6.306;2023-05-07T14:11:15;7.05;;;4.25;;
73454;SDS011;61690;51.824;6.306;2023-05-07T14:13:41;7.60;;;4.53;;
73454;SDS011;61690;51.824;6.306;2023-05-07T14:16:13;6.87;;;4.40;;
73454;SDS011;61690;51.824;6.306;2023-05-07T14:18:41;6.68;;;4.50;;
73454;SDS011;61690;51.824;6.306;2023-05-07T14:21:06;6.72;;;4.18;;
73454;SDS011;61690;51.824;6.306;2023-05-07T14:23:32;7.40;;;4.00;;
73454;SDS011;61690;51.824;6.306;2023-05-07T14:25:58;8.88;;;4.40;;
73454;SDS011;61690;51.824;6.306;2023-05-07T14:28:24;7.07;;;4.55;;
73454;SDS011;61690;51.824;6.306;2023-05-07T14:30:49;7.87;;;4.60;;
73454;SDS011;61690;51.824;6.306;2023-05-07T14:33:15;7.80;;;4.60;;
73454;SDS011;61690;51.824;6.306;2023-05-07T14:35:40;7.23;;;4.10;;
73454;SDS011;61690;51.824;6.306;2023-05-07T14:38:12;7.68;;;4.32;;
73454;SDS011;61690;51.824;6.306;2023-05-07T14:40:38;7.97;;;4.13;;
73454;SDS011;61690;51.824;6.306;2023-05-07T14:43:05;6.87;;;4.40;;
73454;SDS011;61690;51.824;6.306;2023-05-07T14:45:31;6.83;;;4.40;;
73454;SDS011;61690;51.824;6.306;2023-05-07T14:47:57;6.70;;;4.10;;
73454;SDS011;61690;51.824;6.306;2023-05-07T14:50:23;7.00;;;4.47;;
73454;SDS011;61690;51.824;6.306;2023-05-07T14:52:50;7.43;;;4.40;;
73454;SDS011;61690;51.824;6.306;2023-05-07T14:55:15;6.90;;;4.27;;
73454;SDS011;61690;51.824;6.306;2023-05-07T14:57:41;6.70;;;4.50;;
73454;SDS011;61690;51.824;6.306;2023-05-07T15:00:06;8.53;;;4.43;;
73454;SDS011;61690;51.824;6.306;2023-05-07T15:02:33;6.70;;;4.43;;
73454;SDS011;61690;51.824;6.306;2023-05-07T15:05:00;6.63;;;4.53;;
73454;SDS011;61690;51.824;6.306;2023-05-07T15:07:25;8.53;;;4.60;;
73454;SDS011;61690;51.824;6.306;2023-05-07T15:09:52;6.90;;;4.27;;